sensor_id;sensor_type;location;lat;lon;timestamp;P1;durP1;ratioP1;P2;durP2;ratioP2
45522;SDS011;31254;51.680;5.394;2023-03-11T00:00:27;6.47;;;1.00;;
45522;SDS011;31254;51.680;5.394;2023-03-11T00:02:56;10.73;;;1.13;;
45522;SDS011;31254;51.680;5.394;2023-03-11T00:05:25;5.87;;;1.23;;
45522;SDS011;31254;51.680;5.394;2023-03-11T00:07:54;9.23;;;1.20;;
45522;SDS011;31254;51.680;5.394;2023-03-11T00:10:22;4.43;;;1.03;;
45522;SDS011;31254;51.680;5.394;2023-03-11T00:12:56;6.57;;;1.17;;
45522;SDS011;31254;51.680;5.394;2023-03-11T00:15:26;4.73;;;0.87;;
45522;SDS011;31254;51.680;5.394;2023-03-11T00:17:54;4.17;;;0.80;;
45522;SDS011;31254;51.680;5.394;2023-03-11T00:22:50;4.33;;;1.10;;
45522;SDS011;31254;51.680;5.394;2023-03-11T00:25:17;13.73;;;1.13;;
45522;SDS011;31254;51.680;5.394;2023-03-11T00:27:44;8.10;;;1.50;;
45522;SDS011;31254;51.680;5.394;2023-03-11T00:30:13;3.43;;;0.70;;
45522;SDS011;31254;51.680;5.394;2023-03-11T00:32:46;3.53;;;0.83;;
45522;SDS011;31254;51.680;5.394;2023-03-11T00:35:16;7.10;;;1.10;;
45522;SDS011;31254;51.680;5.394;2023-03-11T00:37:45;3.90;;;0.97;;
45522;SDS011;31254;51.680;5.394;2023-03-11T00:40:14;4.27;;;0.83;;
45522;SDS011;31254;51.680;5.394;2023-03-11T00:42:42;11.17;;;1.10;;
45522;SDS011;31254;51.680;5.394;2023-03-11T00:45:10;3.80;;;1.03;;
45522;SDS011;31254;51.680;5.394;2023-03-11T00:47:37;5.60;;;1.03;;
45522;SDS011;31254;51.680;5.394;2023-03-11T00:50:05;10.23;;;1.27;;
45522;SDS011;31254;51.680;5.394;2023-03-11T00:52:34;4.80;;;1.30;;
45522;SDS011;31254;51.680;5.394;2023-03-11T00:55:01;6.90;;;1.60;;
45522;SDS011;31254;51.680;5.394;2023-03-11T00:57:30;3.70;;;1.30;;
45522;SDS011;31254;51.680;5.394;2023-03-11T00:59:58;7.07;;;1.10;;
45522;SDS011;31254;51.680;5.394;2023-03-11T01:02:25;4.53;;;1.17;;
45522;SDS011;31254;51.680;5.394;2023-03-11T01:04:54;6.63;;;1.13;;
45522;SDS011;31254;51.680;5.394;2023-03-11T01:07:21;5.93;;;1.50;;
45522;SDS011;31254;51.680;5.394;2023-03-11T01:09:48;5.20;;;1.27;;
45522;SDS011;31254;51.680;5.394;2023-03-11T01:12:17;6.17;;;1.30;;
45522;SDS011;31254;51.680;5.394;2023-03-11T01:14:44;8.40;;;1.33;;
45522;SDS011;31254;51.680;5.394;2023-03-11T01:17:10;8.20;;;1.27;;
45522;SDS011;31254;51.680;5.394;2023-03-11T01:19:37;6.20;;;1.03;;
45522;SDS011;31254;51.680;5.394;2023-03-11T01:22:04;13.50;;;1.20;;
45522;SDS011;31254;51.680;5.394;2023-03-11T01:24:31;8.90;;;1.07;;
45522;SDS011;31254;51.680;5.394;2023-03-11T01:26:57;2.73;;;0.80;;
45522;SDS011;31254;51.680;5.394;2023-03-11T01:29:24;4.60;;;1.10;;
45522;SDS011;31254;51.680;5.394;2023-03-11T01:31:51;4.03;;;0.97;;
45522;SDS011;31254;51.680;5.394;2023-03-11T01:34:18;5.03;;;1.20;;
45522;SDS011;31254;51.680;5.394;2023-03-11T01:36:45;4.20;;;1.10;;
45522;SDS011;31254;51.680;5.394;2023-03-11T01:39:11;5.43;;;0.93;;
45522;SDS011;31254;51.680;5.394;2023-03-11T01:41:38;4.70;;;1.03;;
45522;SDS011;31254;51.680;5.394;2023-03-11T01:44:09;2.27;;;0.90;;
45522;SDS011;31254;51.680;5.394;2023-03-11T01:49:20;7.07;;;1.00;;
45522;SDS011;31254;51.680;5.394;2023-03-11T01:51:48;6.70;;;1.40;;
45522;SDS011;31254;51.680;5.394;2023-03-11T01:54:24;5.90;;;1.20;;
45522;SDS011;31254;51.680;5.394;2023-03-11T01:56:56;5.97;;;1.47;;
45522;SDS011;31254;51.680;5.394;2023-03-11T01:59:26;6.07;;;1.33;;
45522;SDS011;31254;51.680;5.394;2023-03-11T02:04:38;6.20;;;1.10;;
45522;SDS011;31254;51.680;5.394;2023-03-11T02:07:06;4.03;;;1.03;;
45522;SDS011;31254;51.680;5.394;2023-03-11T02:09:34;5.30;;;1.10;;
45522;SDS011;31254;51.680;5.394;2023-03-11T02:12:04;7.20;;;1.47;;
45522;SDS011;31254;51.680;5.394;2023-03-11T02:14:32;4.63;;;1.10;;
45522;SDS011;31254;51.680;5.394;2023-03-11T02:17:01;3.23;;;1.53;;
45522;SDS011;31254;51.680;5.394;2023-03-11T02:22:10;4.67;;;1.17;;
45522;SDS011;31254;51.680;5.394;2023-03-11T02:27:20;6.90;;;1.20;;
45522;SDS011;31254;51.680;5.394;2023-03-11T02:29:48;5.50;;;1.33;;
45522;SDS011;31254;51.680;5.394;2023-03-11T02:32:19;2.30;;;1.00;;
45522;SDS011;31254;51.680;5.394;2023-03-11T02:34:46;5.17;;;1.23;;
45522;SDS011;31254;51.680;5.394;2023-03-11T02:37:14;4.20;;;1.50;;
45522;SDS011;31254;51.680;5.394;2023-03-11T02:39:44;3.93;;;1.17;;
45522;SDS011;31254;51.680;5.394;2023-03-11T02:42:29;8.80;;;1.53;;
45522;SDS011;31254;51.680;5.394;2023-03-11T02:44:59;5.27;;;1.30;;
45522;SDS011;31254;51.680;5.394;2023-03-11T02:47:31;5.47;;;1.13;;
45522;SDS011;31254;51.680;5.394;2023-03-11T02:50:00;5.03;;;1.30;;
45522;SDS011;31254;51.680;5.394;2023-03-11T02:52:29;8.90;;;1.50;;
45522;SDS011;31254;51.680;5.394;2023-03-11T02:55:01;6.23;;;1.30;;
45522;SDS011;31254;51.680;5.394;2023-03-11T02:57:28;8.23;;;1.20;;
45522;SDS011;31254;51.680;5.394;2023-03-11T02:59:55;6.43;;;1.13;;
45522;SDS011;31254;51.680;5.394;2023-03-11T03:02:22;7.23;;;1.43;;
45522;SDS011;31254;51.680;5.394;2023-03-11T03:04:51;10.57;;;1.40;;
45522;SDS011;31254;51.680;5.394;2023-03-11T03:07:18;4.37;;;0.93;;
45522;SDS011;31254;51.680;5.394;2023-03-11T03:09:44;5.83;;;1.40;;
45522;SDS011;31254;51.680;5.394;2023-03-11T03:12:11;6.00;;;1.33;;
45522;SDS011;31254;51.680;5.394;2023-03-11T03:14:37;9.47;;;1.83;;
45522;SDS011;31254;51.680;5.394;2023-03-11T03:17:04;5.60;;;1.43;;
45522;SDS011;31254;51.680;5.394;2023-03-11T03:19:31;6.57;;;1.47;;
45522;SDS011;31254;51.680;5.394;2023-03-11T03:21:58;8.40;;;1.40;;
45522;SDS011;31254;51.680;5.394;2023-03-11T03:24:25;8.00;;;1.40;;
45522;SDS011;31254;51.680;5.394;2023-03-11T03:26:51;3.87;;;0.90;;
45522;SDS011;31254;51.680;5.394;2023-03-11T03:29:20;3.57;;;1.33;;
45522;SDS011;31254;51.680;5.394;2023-03-11T03:31:47;4.23;;;1.13;;
45522;SDS011;31254;51.680;5.394;2023-03-11T03:34:14;6.23;;;1.40;;
45522;SDS011;31254;51.680;5.394;2023-03-11T03:36:43;7.23;;;1.10;;
45522;SDS011;31254;51.680;5.394;2023-03-11T03:39:10;5.77;;;1.50;;
45522;SDS011;31254;51.680;5.394;2023-03-11T03:41:37;6.73;;;1.47;;
45522;SDS011;31254;51.680;5.394;2023-03-11T03:44:06;11.70;;;1.40;;
45522;SDS011;31254;51.680;5.394;2023-03-11T03:46:32;5.17;;;1.23;;
45522;SDS011;31254;51.680;5.394;2023-03-11T03:48:59;6.90;;;1.63;;
45522;SDS011;31254;51.680;5.394;2023-03-11T03:51:26;9.17;;;1.73;;
45522;SDS011;31254;51.680;5.394;2023-03-11T03:53:55;6.43;;;1.43;;
45522;SDS011;31254;51.680;5.394;2023-03-11T03:56:22;7.50;;;1.73;;
45522;SDS011;31254;51.680;5.394;2023-03-11T03:58:48;10.50;;;1.87;;
45522;SDS011;31254;51.680;5.394;2023-03-11T04:01:15;4.40;;;1.20;;
45522;SDS011;31254;51.680;5.394;2023-03-11T04:03:42;8.40;;;1.67;;
45522;SDS011;31254;51.680;5.394;2023-03-11T04:08:45;12.00;;;1.70;;
45522;SDS011;31254;51.680;5.394;2023-03-11T04:11:12;7.10;;;1.60;;
45522;SDS011;31254;51.680;5.394;2023-03-11T04:13:41;8.23;;;1.40;;
45522;SDS011;31254;51.680;5.394;2023-03-11T04:16:17;13.50;;;2.37;;
45522;SDS011;31254;51.680;5.394;2023-03-11T04:18:46;10.63;;;1.73;;
45522;SDS011;31254;51.680;5.394;2023-03-11T04:21:13;3.57;;;1.40;;
45522;SDS011;31254;51.680;5.394;2023-03-11T04:23:40;7.80;;;1.37;;
45522;SDS011;31254;51.680;5.394;2023-03-11T04:26:06;7.33;;;1.30;;
45522;SDS011;31254;51.680;5.394;2023-03-11T04:28:33;9.47;;;1.43;;
45522;SDS011;31254;51.680;5.394;2023-03-11T04:31:00;5.93;;;1.73;;
45522;SDS011;31254;51.680;5.394;2023-03-11T04:33:27;3.57;;;1.67;;
45522;SDS011;31254;51.680;5.394;2023-03-11T04:35:59;4.83;;;1.40;;
45522;SDS011;31254;51.680;5.394;2023-03-11T04:38:30;5.57;;;1.60;;
45522;SDS011;31254;51.680;5.394;2023-03-11T04:41:00;10.40;;;1.63;;
45522;SDS011;31254;51.680;5.394;2023-03-11T04:43:28;8.50;;;1.80;;
45522;SDS011;31254;51.680;5.394;2023-03-11T04:45:55;7.73;;;1.47;;
45522;SDS011;31254;51.680;5.394;2023-03-11T04:48:22;7.50;;;1.40;;
45522;SDS011;31254;51.680;5.394;2023-03-11T04:50:50;8.37;;;1.67;;
45522;SDS011;31254;51.680;5.394;2023-03-11T04:53:16;10.87;;;1.60;;
45522;SDS011;31254;51.680;5.394;2023-03-11T04:55:43;5.80;;;1.40;;
45522;SDS011;31254;51.680;5.394;2023-03-11T04:58:10;4.80;;;1.40;;
45522;SDS011;31254;51.680;5.394;2023-03-11T05:00:39;4.73;;;1.10;;
45522;SDS011;31254;51.680;5.394;2023-03-11T05:03:06;6.57;;;1.50;;
45522;SDS011;31254;51.680;5.394;2023-03-11T05:05:35;4.57;;;1.50;;
45522;SDS011;31254;51.680;5.394;2023-03-11T05:08:02;10.13;;;1.83;;
45522;SDS011;31254;51.680;5.394;2023-03-11T05:10:29;4.27;;;1.87;;
45522;SDS011;31254;51.680;5.394;2023-03-11T05:12:59;6.27;;;1.80;;
45522;SDS011;31254;51.680;5.394;2023-03-11T05:15:25;7.73;;;1.63;;
45522;SDS011;31254;51.680;5.394;2023-03-11T05:17:52;4.27;;;1.60;;
45522;SDS011;31254;51.680;5.394;2023-03-11T05:20:22;8.53;;;1.60;;
45522;SDS011;31254;51.680;5.394;2023-03-11T05:22:49;8.23;;;1.80;;
45522;SDS011;31254;51.680;5.394;2023-03-11T05:25:17;5.20;;;1.83;;
45522;SDS011;31254;51.680;5.394;2023-03-11T05:27:44;10.70;;;2.10;;
45522;SDS011;31254;51.680;5.394;2023-03-11T05:30:11;7.13;;;1.67;;
45522;SDS011;31254;51.680;5.394;2023-03-11T05:32:41;5.77;;;1.47;;
45522;SDS011;31254;51.680;5.394;2023-03-11T05:35:08;7.97;;;1.73;;
45522;SDS011;31254;51.680;5.394;2023-03-11T05:37:35;4.73;;;1.50;;
45522;SDS011;31254;51.680;5.394;2023-03-11T05:40:08;3.63;;;1.60;;
45522;SDS011;31254;51.680;5.394;2023-03-11T05:42:38;6.40;;;1.60;;
45522;SDS011;31254;51.680;5.394;2023-03-11T05:45:07;8.23;;;1.97;;
45522;SDS011;31254;51.680;5.394;2023-03-11T05:47:34;4.73;;;1.80;;
45522;SDS011;31254;51.680;5.394;2023-03-11T05:50:08;9.90;;;1.97;;
45522;SDS011;31254;51.680;5.394;2023-03-11T05:52:36;7.87;;;2.20;;
45522;SDS011;31254;51.680;5.394;2023-03-11T05:55:05;9.27;;;1.87;;
45522;SDS011;31254;51.680;5.394;2023-03-11T05:57:35;5.07;;;2.20;;
45522;SDS011;31254;51.680;5.394;2023-03-11T06:00:05;14.17;;;1.80;;
45522;SDS011;31254;51.680;5.394;2023-03-11T06:02:38;10.60;;;1.80;;
45522;SDS011;31254;51.680;5.394;2023-03-11T06:05:06;7.83;;;1.80;;
45522;SDS011;31254;51.680;5.394;2023-03-11T06:07:37;6.13;;;1.90;;
45522;SDS011;31254;51.680;5.394;2023-03-11T06:10:06;8.10;;;1.70;;
45522;SDS011;31254;51.680;5.394;2023-03-11T06:12:33;10.10;;;1.63;;
45522;SDS011;31254;51.680;5.394;2023-03-11T06:15:00;6.47;;;1.70;;
45522;SDS011;31254;51.680;5.394;2023-03-11T06:17:27;4.63;;;1.60;;
45522;SDS011;31254;51.680;5.394;2023-03-11T06:20:00;8.93;;;1.53;;
45522;SDS011;31254;51.680;5.394;2023-03-11T06:22:27;7.73;;;1.93;;
45522;SDS011;31254;51.680;5.394;2023-03-11T06:24:56;10.57;;;2.20;;
45522;SDS011;31254;51.680;5.394;2023-03-11T06:27:23;6.13;;;2.03;;
45522;SDS011;31254;51.680;5.394;2023-03-11T06:29:53;9.73;;;2.10;;
45522;SDS011;31254;51.680;5.394;2023-03-11T06:32:20;6.77;;;1.97;;
45522;SDS011;31254;51.680;5.394;2023-03-11T06:34:50;6.57;;;2.10;;
45522;SDS011;31254;51.680;5.394;2023-03-11T06:37:18;8.37;;;1.90;;
45522;SDS011;31254;51.680;5.394;2023-03-11T06:39:46;4.93;;;1.90;;
45522;SDS011;31254;51.680;5.394;2023-03-11T06:42:13;6.13;;;2.00;;
45522;SDS011;31254;51.680;5.394;2023-03-11T06:44:40;5.27;;;1.90;;
45522;SDS011;31254;51.680;5.394;2023-03-11T06:47:06;8.43;;;2.30;;
45522;SDS011;31254;51.680;5.394;2023-03-11T06:49:33;8.50;;;2.27;;
45522;SDS011;31254;51.680;5.394;2023-03-11T06:52:00;6.13;;;2.27;;
45522;SDS011;31254;51.680;5.394;2023-03-11T06:54:27;4.70;;;1.83;;
45522;SDS011;31254;51.680;5.394;2023-03-11T06:56:56;8.43;;;2.20;;
45522;SDS011;31254;51.680;5.394;2023-03-11T06:59:25;7.40;;;1.90;;
45522;SDS011;31254;51.680;5.394;2023-03-11T07:01:53;8.00;;;2.00;;
45522;SDS011;31254;51.680;5.394;2023-03-11T07:04:20;6.63;;;2.50;;
45522;SDS011;31254;51.680;5.394;2023-03-11T07:06:47;13.87;;;2.07;;
45522;SDS011;31254;51.680;5.394;2023-03-11T07:09:16;4.20;;;2.10;;
45522;SDS011;31254;51.680;5.394;2023-03-11T07:11:43;10.57;;;1.83;;
45522;SDS011;31254;51.680;5.394;2023-03-11T07:14:10;4.57;;;1.90;;
45522;SDS011;31254;51.680;5.394;2023-03-11T07:16:37;6.93;;;2.13;;
45522;SDS011;31254;51.680;5.394;2023-03-11T07:19:04;5.20;;;1.90;;
45522;SDS011;31254;51.680;5.394;2023-03-11T07:21:34;6.30;;;1.90;;
45522;SDS011;31254;51.680;5.394;2023-03-11T07:24:02;7.13;;;2.33;;
45522;SDS011;31254;51.680;5.394;2023-03-11T07:26:30;6.30;;;2.17;;
45522;SDS011;31254;51.680;5.394;2023-03-11T07:28:58;9.70;;;1.90;;
45522;SDS011;31254;51.680;5.394;2023-03-11T07:31:26;5.30;;;1.83;;
45522;SDS011;31254;51.680;5.394;2023-03-11T07:33:56;4.97;;;1.90;;
45522;SDS011;31254;51.680;5.394;2023-03-11T07:36:25;9.33;;;1.70;;
45522;SDS011;31254;51.680;5.394;2023-03-11T07:38:56;3.70;;;1.70;;
45522;SDS011;31254;51.680;5.394;2023-03-11T07:41:30;6.80;;;2.00;;
45522;SDS011;31254;51.680;5.394;2023-03-11T07:44:01;5.07;;;1.97;;
45522;SDS011;31254;51.680;5.394;2023-03-11T07:46:29;5.27;;;1.80;;
45522;SDS011;31254;51.680;5.394;2023-03-11T07:48:56;3.53;;;1.80;;
45522;SDS011;31254;51.680;5.394;2023-03-11T07:51:27;4.90;;;1.83;;
45522;SDS011;31254;51.680;5.394;2023-03-11T07:53:55;7.40;;;1.80;;
45522;SDS011;31254;51.680;5.394;2023-03-11T07:56:26;4.70;;;1.50;;
45522;SDS011;31254;51.680;5.394;2023-03-11T07:58:55;4.43;;;1.57;;
45522;SDS011;31254;51.680;5.394;2023-03-11T08:01:24;9.27;;;1.70;;
45522;SDS011;31254;51.680;5.394;2023-03-11T08:03:52;10.67;;;2.23;;
45522;SDS011;31254;51.680;5.394;2023-03-11T08:06:28;4.87;;;1.80;;
45522;SDS011;31254;51.680;5.394;2023-03-11T08:09:00;14.07;;;1.90;;
45522;SDS011;31254;51.680;5.394;2023-03-11T08:11:30;9.03;;;2.23;;
45522;SDS011;31254;51.680;5.394;2023-03-11T08:14:00;5.80;;;1.93;;
45522;SDS011;31254;51.680;5.394;2023-03-11T08:16:27;25.40;;;2.00;;
45522;SDS011;31254;51.680;5.394;2023-03-11T08:18:54;4.77;;;1.77;;
45522;SDS011;31254;51.680;5.394;2023-03-11T08:21:22;10.97;;;1.90;;
45522;SDS011;31254;51.680;5.394;2023-03-11T08:23:51;5.57;;;1.90;;
45522;SDS011;31254;51.680;5.394;2023-03-11T08:26:18;5.37;;;1.80;;
45522;SDS011;31254;51.680;5.394;2023-03-11T08:28:49;5.43;;;1.97;;
45522;SDS011;31254;51.680;5.394;2023-03-11T08:31:17;6.93;;;2.03;;
45522;SDS011;31254;51.680;5.394;2023-03-11T08:33:52;4.50;;;1.87;;
45522;SDS011;31254;51.680;5.394;2023-03-11T08:36:22;6.13;;;1.60;;
45522;SDS011;31254;51.680;5.394;2023-03-11T08:38:54;4.13;;;1.57;;
45522;SDS011;31254;51.680;5.394;2023-03-11T08:41:21;3.07;;;1.63;;
45522;SDS011;31254;51.680;5.394;2023-03-11T08:43:47;6.73;;;1.70;;
45522;SDS011;31254;51.680;5.394;2023-03-11T08:46:23;6.03;;;1.30;;
45522;SDS011;31254;51.680;5.394;2023-03-11T08:48:50;4.50;;;1.40;;
45522;SDS011;31254;51.680;5.394;2023-03-11T08:51:17;3.83;;;1.20;;
45522;SDS011;31254;51.680;5.394;2023-03-11T08:53:46;7.80;;;1.63;;
45522;SDS011;31254;51.680;5.394;2023-03-11T08:56:13;7.07;;;1.50;;
45522;SDS011;31254;51.680;5.394;2023-03-11T08:58:40;3.97;;;1.08;;
45522;SDS011;31254;51.680;5.394;2023-03-11T09:01:06;6.93;;;1.23;;
45522;SDS011;31254;51.680;5.394;2023-03-11T09:03:34;3.13;;;1.00;;
45522;SDS011;31254;51.680;5.394;2023-03-11T09:06:06;4.15;;;1.08;;
45522;SDS011;31254;51.680;5.394;2023-03-11T09:08:35;3.15;;;1.00;;
45522;SDS011;31254;51.680;5.394;2023-03-11T09:11:02;4.43;;;0.95;;
45522;SDS011;31254;51.680;5.394;2023-03-11T09:13:28;2.90;;;0.90;;
45522;SDS011;31254;51.680;5.394;2023-03-11T09:15:55;6.53;;;1.10;;
45522;SDS011;31254;51.680;5.394;2023-03-11T09:18:26;4.20;;;1.02;;
45522;SDS011;31254;51.680;5.394;2023-03-11T09:20:54;3.63;;;1.20;;
45522;SDS011;31254;51.680;5.394;2023-03-11T09:23:25;8.18;;;1.70;;
45522;SDS011;31254;51.680;5.394;2023-03-11T09:25:52;2.70;;;0.85;;
45522;SDS011;31254;51.680;5.394;2023-03-11T09:28:21;3.72;;;1.00;;
45522;SDS011;31254;51.680;5.394;2023-03-11T09:30:48;7.28;;;1.10;;
45522;SDS011;31254;51.680;5.394;2023-03-11T09:33:17;2.17;;;0.70;;
45522;SDS011;31254;51.680;5.394;2023-03-11T09:35:47;1.25;;;0.50;;
45522;SDS011;31254;51.680;5.394;2023-03-11T09:38:14;6.47;;;0.82;;
45522;SDS011;31254;51.680;5.394;2023-03-11T09:46:03;7.75;;;1.23;;
45522;SDS011;31254;51.680;5.394;2023-03-11T09:48:58;5.53;;;0.93;;
45522;SDS011;31254;51.680;5.394;2023-03-11T09:51:51;3.78;;;0.80;;
45522;SDS011;31254;51.680;5.394;2023-03-11T09:54:36;2.35;;;0.70;;
45522;SDS011;31254;51.680;5.394;2023-03-11T09:57:05;2.72;;;0.82;;
45522;SDS011;31254;51.680;5.394;2023-03-11T09:59:38;11.48;;;1.20;;
45522;SDS011;31254;51.680;5.394;2023-03-11T10:02:09;2.63;;;1.00;;
45522;SDS011;31254;51.680;5.394;2023-03-11T10:04:41;1.95;;;0.77;;
45522;SDS011;31254;51.680;5.394;2023-03-11T10:07:17;2.25;;;0.60;;
45522;SDS011;31254;51.680;5.394;2023-03-11T10:09:53;2.72;;;0.95;;
45522;SDS011;31254;51.680;5.394;2023-03-11T10:26:34;5.03;;;0.80;;
45522;SDS011;31254;51.680;5.394;2023-03-11T10:32:08;6.30;;;0.68;;
45522;SDS011;31254;51.680;5.394;2023-03-11T10:34:48;1.85;;;0.63;;
45522;SDS011;31254;51.680;5.394;2023-03-11T10:37:23;2.78;;;0.52;;
45522;SDS011;31254;51.680;5.394;2023-03-11T10:42:49;5.85;;;0.50;;
45522;SDS011;31254;51.680;5.394;2023-03-11T10:45:17;5.90;;;0.75;;
45522;SDS011;31254;51.680;5.394;2023-03-11T10:47:48;2.60;;;0.68;;
45522;SDS011;31254;51.680;5.394;2023-03-11T10:50:16;1.80;;;0.55;;
45522;SDS011;31254;51.680;5.394;2023-03-11T10:55:29;3.05;;;0.88;;
45522;SDS011;31254;51.680;5.394;2023-03-11T10:58:12;3.78;;;0.75;;
45522;SDS011;31254;51.680;5.394;2023-03-11T11:00:43;2.47;;;0.50;;
45522;SDS011;31254;51.680;5.394;2023-03-11T11:03:45;3.70;;;0.60;;
45522;SDS011;31254;51.680;5.394;2023-03-11T11:06:16;3.83;;;0.50;;
45522;SDS011;31254;51.680;5.394;2023-03-11T11:08:44;4.05;;;0.60;;
45522;SDS011;31254;51.680;5.394;2023-03-11T11:11:30;3.72;;;0.95;;
45522;SDS011;31254;51.680;5.394;2023-03-11T11:13:57;4.72;;;0.93;;
45522;SDS011;31254;51.680;5.394;2023-03-11T11:16:26;4.05;;;0.80;;
45522;SDS011;31254;51.680;5.394;2023-03-11T11:21:49;7.03;;;0.70;;
45522;SDS011;31254;51.680;5.394;2023-03-11T11:27:02;3.85;;;0.90;;
45522;SDS011;31254;51.680;5.394;2023-03-11T11:29:31;6.28;;;1.00;;
45522;SDS011;31254;51.680;5.394;2023-03-11T11:32:09;4.13;;;0.80;;
45522;SDS011;31254;51.680;5.394;2023-03-11T11:37:34;8.98;;;0.80;;
45522;SDS011;31254;51.680;5.394;2023-03-11T11:40:13;1.42;;;0.60;;
45522;SDS011;31254;51.680;5.394;2023-03-11T11:42:58;2.75;;;0.80;;
45522;SDS011;31254;51.680;5.394;2023-03-11T11:45:36;2.83;;;0.60;;
45522;SDS011;31254;51.680;5.394;2023-03-11T11:48:33;2.65;;;0.55;;
45522;SDS011;31254;51.680;5.394;2023-03-11T11:51:23;5.40;;;0.60;;
45522;SDS011;31254;51.680;5.394;2023-03-11T11:56:27;9.73;;;0.60;;
45522;SDS011;31254;51.680;5.394;2023-03-11T11:58:54;1.13;;;0.68;;
45522;SDS011;31254;51.680;5.394;2023-03-11T12:04:00;4.22;;;1.00;;
45522;SDS011;31254;51.680;5.394;2023-03-11T12:12:31;3.80;;;1.00;;
45522;SDS011;31254;51.680;5.394;2023-03-11T12:15:10;1.95;;;0.60;;
45522;SDS011;31254;51.680;5.394;2023-03-11T12:17:42;3.20;;;0.70;;
45522;SDS011;31254;51.680;5.394;2023-03-11T12:20:32;4.20;;;0.70;;
45522;SDS011;31254;51.680;5.394;2023-03-11T12:26:03;2.20;;;0.50;;
45522;SDS011;31254;51.680;5.394;2023-03-11T12:28:49;2.85;;;0.70;;
45522;SDS011;31254;51.680;5.394;2023-03-11T12:31:41;3.97;;;0.75;;
45522;SDS011;31254;51.680;5.394;2023-03-11T12:34:10;3.53;;;0.65;;
45522;SDS011;31254;51.680;5.394;2023-03-11T12:36:44;3.47;;;0.63;;
45522;SDS011;31254;51.680;5.394;2023-03-11T12:39:34;4.20;;;0.70;;
45522;SDS011;31254;51.680;5.394;2023-03-11T12:42:21;4.32;;;0.60;;
45522;SDS011;31254;51.680;5.394;2023-03-11T12:44:47;4.40;;;0.60;;
45522;SDS011;31254;51.680;5.394;2023-03-11T12:47:16;5.15;;;0.77;;
45522;SDS011;31254;51.680;5.394;2023-03-11T12:49:51;4.38;;;0.52;;
45522;SDS011;31254;51.680;5.394;2023-03-11T12:52:24;3.28;;;0.60;;
45522;SDS011;31254;51.680;5.394;2023-03-11T12:57:26;1.63;;;0.60;;
45522;SDS011;31254;51.680;5.394;2023-03-11T13:03:24;4.25;;;0.60;;
45522;SDS011;31254;51.680;5.394;2023-03-11T13:09:15;2.72;;;0.63;;
45522;SDS011;31254;51.680;5.394;2023-03-11T13:11:44;6.38;;;0.88;;
45522;SDS011;31254;51.680;5.394;2023-03-11T13:14:31;5.65;;;1.05;;
45522;SDS011;31254;51.680;5.394;2023-03-11T13:19:52;1.67;;;0.50;;
45522;SDS011;31254;51.680;5.394;2023-03-11T13:33:51;1.70;;;0.60;;
45522;SDS011;31254;51.680;5.394;2023-03-11T13:41:42;3.50;;;0.50;;
45522;SDS011;31254;51.680;5.394;2023-03-11T13:44:13;2.63;;;0.68;;
45522;SDS011;31254;51.680;5.394;2023-03-11T13:46:48;4.45;;;0.60;;
45522;SDS011;31254;51.680;5.394;2023-03-11T13:49:25;3.90;;;0.60;;
45522;SDS011;31254;51.680;5.394;2023-03-11T13:52:02;5.78;;;0.70;;
45522;SDS011;31254;51.680;5.394;2023-03-11T13:54:47;2.63;;;0.60;;
45522;SDS011;31254;51.680;5.394;2023-03-11T13:57:29;4.88;;;1.20;;
45522;SDS011;31254;51.680;5.394;2023-03-11T14:00:02;3.03;;;0.73;;
45522;SDS011;31254;51.680;5.394;2023-03-11T14:02:45;2.95;;;0.95;;
45522;SDS011;31254;51.680;5.394;2023-03-11T14:05:18;4.55;;;0.88;;
45522;SDS011;31254;51.680;5.394;2023-03-11T14:07:50;4.32;;;0.80;;
45522;SDS011;31254;51.680;5.394;2023-03-11T14:10:24;1.73;;;0.70;;
45522;SDS011;31254;51.680;5.394;2023-03-11T14:13:12;7.28;;;1.00;;
45522;SDS011;31254;51.680;5.394;2023-03-11T14:15:46;4.22;;;1.10;;
45522;SDS011;31254;51.680;5.394;2023-03-11T14:18:29;5.13;;;0.93;;
45522;SDS011;31254;51.680;5.394;2023-03-11T14:21:11;6.70;;;0.60;;
45522;SDS011;31254;51.680;5.394;2023-03-11T14:23:41;5.15;;;0.95;;
45522;SDS011;31254;51.680;5.394;2023-03-11T14:26:16;2.33;;;0.80;;
45522;SDS011;31254;51.680;5.394;2023-03-11T14:28:47;2.83;;;0.77;;
45522;SDS011;31254;51.680;5.394;2023-03-11T14:31:32;3.63;;;0.75;;
45522;SDS011;31254;51.680;5.394;2023-03-11T14:34:03;3.08;;;0.95;;
45522;SDS011;31254;51.680;5.394;2023-03-11T14:36:51;2.75;;;0.80;;
45522;SDS011;31254;51.680;5.394;2023-03-11T14:39:28;6.63;;;0.90;;
45522;SDS011;31254;51.680;5.394;2023-03-11T14:44:38;5.13;;;0.90;;
45522;SDS011;31254;51.680;5.394;2023-03-11T14:47:19;8.82;;;0.90;;
45522;SDS011;31254;51.680;5.394;2023-03-11T14:49:47;5.55;;;1.20;;
45522;SDS011;31254;51.680;5.394;2023-03-11T14:52:35;3.85;;;0.98;;
45522;SDS011;31254;51.680;5.394;2023-03-11T14:55:31;3.63;;;1.20;;
45522;SDS011;31254;51.680;5.394;2023-03-11T15:00:35;5.63;;;1.17;;
45522;SDS011;31254;51.680;5.394;2023-03-11T15:03:11;3.33;;;0.80;;
45522;SDS011;31254;51.680;5.394;2023-03-11T15:08:15;2.67;;;0.73;;
45522;SDS011;31254;51.680;5.394;2023-03-11T15:13:33;5.75;;;0.80;;
45522;SDS011;31254;51.680;5.394;2023-03-11T15:16:01;3.88;;;0.80;;
45522;SDS011;31254;51.680;5.394;2023-03-11T15:18:33;2.47;;;0.77;;
45522;SDS011;31254;51.680;5.394;2023-03-11T15:21:03;8.10;;;1.13;;
45522;SDS011;31254;51.680;5.394;2023-03-11T15:23:31;3.22;;;0.80;;
45522;SDS011;31254;51.680;5.394;2023-03-11T15:26:03;4.97;;;0.90;;
45522;SDS011;31254;51.680;5.394;2023-03-11T15:28:30;3.97;;;0.80;;
45522;SDS011;31254;51.680;5.394;2023-03-11T15:33:42;1.52;;;0.65;;
45522;SDS011;31254;51.680;5.394;2023-03-11T15:36:29;3.28;;;0.80;;
45522;SDS011;31254;51.680;5.394;2023-03-11T15:41:46;4.20;;;1.02;;
45522;SDS011;31254;51.680;5.394;2023-03-11T15:44:29;2.25;;;0.65;;
45522;SDS011;31254;51.680;5.394;2023-03-11T15:46:59;4.13;;;0.75;;
45522;SDS011;31254;51.680;5.394;2023-03-11T15:49:26;4.25;;;0.80;;
45522;SDS011;31254;51.680;5.394;2023-03-11T15:52:00;4.35;;;0.80;;
45522;SDS011;31254;51.680;5.394;2023-03-11T15:54:27;5.15;;;0.90;;
45522;SDS011;31254;51.680;5.394;2023-03-11T15:56:55;3.40;;;0.70;;
45522;SDS011;31254;51.680;5.394;2023-03-11T15:59:23;3.03;;;0.70;;
45522;SDS011;31254;51.680;5.394;2023-03-11T16:01:50;4.95;;;0.93;;
45522;SDS011;31254;51.680;5.394;2023-03-11T16:04:17;3.65;;;0.90;;
45522;SDS011;31254;51.680;5.394;2023-03-11T16:06:46;2.03;;;0.80;;
45522;SDS011;31254;51.680;5.394;2023-03-11T16:09:32;4.03;;;0.80;;
45522;SDS011;31254;51.680;5.394;2023-03-11T16:12:19;3.25;;;0.77;;
45522;SDS011;31254;51.680;5.394;2023-03-11T16:14:50;1.63;;;0.75;;
45522;SDS011;31254;51.680;5.394;2023-03-11T16:17:17;2.90;;;0.70;;
45522;SDS011;31254;51.680;5.394;2023-03-11T16:19:44;5.25;;;1.27;;
45522;SDS011;31254;51.680;5.394;2023-03-11T16:22:20;1.40;;;0.60;;
45522;SDS011;31254;51.680;5.394;2023-03-11T16:24:56;3.05;;;0.77;;
45522;SDS011;31254;51.680;5.394;2023-03-11T16:27:24;5.03;;;0.77;;
45522;SDS011;31254;51.680;5.394;2023-03-11T16:29:53;2.00;;;0.77;;
45522;SDS011;31254;51.680;5.394;2023-03-11T16:32:21;5.18;;;0.82;;
45522;SDS011;31254;51.680;5.394;2023-03-11T16:34:48;2.85;;;0.80;;
45522;SDS011;31254;51.680;5.394;2023-03-11T16:37:15;2.38;;;0.90;;
45522;SDS011;31254;51.680;5.394;2023-03-11T16:39:46;3.53;;;0.98;;
45522;SDS011;31254;51.680;5.394;2023-03-11T16:42:19;1.50;;;0.80;;
45522;SDS011;31254;51.680;5.394;2023-03-11T16:44:48;4.35;;;0.95;;
45522;SDS011;31254;51.680;5.394;2023-03-11T16:47:15;1.63;;;0.63;;
45522;SDS011;31254;51.680;5.394;2023-03-11T16:49:42;6.45;;;0.73;;
45522;SDS011;31254;51.680;5.394;2023-03-11T16:52:09;4.90;;;0.88;;
45522;SDS011;31254;51.680;5.394;2023-03-11T16:54:35;1.33;;;0.70;;
45522;SDS011;31254;51.680;5.394;2023-03-11T16:57:02;1.77;;;0.60;;